createdAt,value
2019-04-06T00:02:35.126Z,19.60
2019-04-06T00:05:04.889Z,19.13
2019-04-06T00:07:33.569Z,20.13
2019-04-06T00:10:02.427Z,19.77
2019-04-06T00:12:31.309Z,20.60
2019-04-06T00:15:00.015Z,18.30
2019-04-06T00:17:28.876Z,18.67
2019-04-06T00:19:57.614Z,18.90
2019-04-06T00:22:26.285Z,19.60
2019-04-06T00:24:55.051Z,19.87
2019-04-06T00:27:24.739Z,19.97
2019-04-06T00:29:53.878Z,20.00
2019-04-06T00:32:33.219Z,19.67
2019-04-06T00:35:02.128Z,18.60
2019-04-06T00:37:30.996Z,17.93
2019-04-06T00:39:59.921Z,17.87
2019-04-06T00:42:28.691Z,19.47
2019-04-06T00:44:57.385Z,18.20
2019-04-06T00:47:26.217Z,18.40
2019-04-06T00:49:54.987Z,19.27
2019-04-06T00:52:23.646Z,18.20
2019-04-06T00:54:52.322Z,18.77
2019-04-06T00:57:21.154Z,18.57
2019-04-06T00:59:50.443Z,19.57
2019-04-06T01:02:19.404Z,17.33
2019-04-06T01:04:47.925Z,17.10
2019-04-06T01:07:16.992Z,18.03
2019-04-06T01:09:46.088Z,18.47
2019-04-06T01:12:14.948Z,18.70
2019-04-06T01:14:43.480Z,18.13
2019-04-06T01:17:12.058Z,18.37
2019-04-06T01:19:40.783Z,18.13
2019-04-06T01:22:09.469Z,18.60
2019-04-06T01:24:37.978Z,18.80
2019-04-06T01:27:06.919Z,16.70
2019-04-06T01:29:35.452Z,18.20
2019-04-06T01:32:04.109Z,16.03
2019-04-06T01:34:32.704Z,19.47
2019-04-06T01:37:01.353Z,18.30
2019-04-06T01:39:29.915Z,17.60
2019-04-06T01:41:58.459Z,19.17
2019-04-06T01:44:27.038Z,18.20
2019-04-06T01:46:55.614Z,17.70
2019-04-06T01:49:24.155Z,18.10
2019-04-06T01:51:52.821Z,16.90
2019-04-06T01:54:21.362Z,18.30
2019-04-06T01:56:49.950Z,17.57
2019-04-06T01:59:18.502Z,17.57
2019-04-06T02:01:48.730Z,17.47
2019-04-06T02:04:17.571Z,18.77
2019-04-06T02:06:46.083Z,16.87
2019-04-06T02:09:14.629Z,17.23
2019-04-06T02:11:43.214Z,17.17
2019-04-06T02:14:11.861Z,16.00
2019-04-06T02:16:40.680Z,18.67
2019-04-06T02:19:09.279Z,18.30
2019-04-06T02:21:37.828Z,17.20
2019-04-06T02:24:06.529Z,17.47
2019-04-06T02:26:35.070Z,18.43
2019-04-06T02:29:03.608Z,16.60
2019-04-06T02:31:39.764Z,16.33
2019-04-06T02:34:25.232Z,17.23
2019-04-06T02:36:55.484Z,19.00
2019-04-06T02:39:25.670Z,19.73
2019-04-06T02:41:55.855Z,18.23
2019-04-06T02:44:24.439Z,19.00
2019-04-06T02:46:53.039Z,17.30
2019-04-06T02:49:21.573Z,16.97
2019-04-06T02:51:50.501Z,17.70
2019-04-06T02:54:19.128Z,17.77
2019-04-06T02:56:47.988Z,15.83
2019-04-06T02:59:17.299Z,16.57
2019-04-06T03:01:46.080Z,16.50
2019-04-06T03:04:14.634Z,16.93
2019-04-06T03:06:43.334Z,15.93
2019-04-06T03:09:12.175Z,18.43
2019-04-06T03:11:41.039Z,16.33
2019-04-06T03:14:09.719Z,15.13
2019-04-06T03:16:38.329Z,16.67
2019-04-06T03:19:06.908Z,16.10
2019-04-06T03:21:35.451Z,16.03
2019-04-06T03:24:04.099Z,15.80
2019-04-06T03:26:32.644Z,16.70
2019-04-06T03:29:01.362Z,14.60
2019-04-06T03:31:29.911Z,15.73
2019-04-06T03:33:58.629Z,15.37
2019-04-06T03:36:27.163Z,13.47
2019-04-06T03:38:55.798Z,15.10
2019-04-06T03:41:24.360Z,15.30
2019-04-06T03:43:53.853Z,16.53
2019-04-06T03:46:22.410Z,15.77
2019-04-06T03:48:51.018Z,17.00
2019-04-06T03:51:20.198Z,15.03
2019-04-06T03:53:49.133Z,14.97
2019-04-06T03:56:17.737Z,15.27
2019-04-06T03:58:46.499Z,14.77
2019-04-06T04:01:15.224Z,14.97
2019-04-06T04:03:43.786Z,14.30
2019-04-06T04:06:12.333Z,14.07
2019-04-06T04:08:40.932Z,14.80
2019-04-06T04:11:09.484Z,14.97
2019-04-06T04:13:38.027Z,13.83
2019-04-06T04:16:06.607Z,15.37
2019-04-06T04:18:35.152Z,13.50
2019-04-06T04:21:04.015Z,13.73
2019-04-06T04:23:32.559Z,13.50
2019-04-06T04:26:01.139Z,15.47
2019-04-06T04:28:29.688Z,13.97
2019-04-06T04:30:58.549Z,15.83
2019-04-06T04:33:27.304Z,12.63
2019-04-06T04:35:55.928Z,15.30
2019-04-06T04:38:24.477Z,15.13
2019-04-06T04:40:53.292Z,13.97
2019-04-06T04:43:21.925Z,15.00
2019-04-06T04:45:50.529Z,14.87
2019-04-06T04:48:19.076Z,13.40
2019-04-06T04:50:47.848Z,13.67
2019-04-06T04:53:16.516Z,13.90
2019-04-06T04:55:45.070Z,14.50
2019-04-06T04:58:13.658Z,15.07
2019-04-06T05:00:42.196Z,13.80
2019-04-06T05:03:10.775Z,13.60
2019-04-06T05:05:39.324Z,14.23
2019-04-06T05:08:08.232Z,13.43
2019-04-06T05:10:36.786Z,14.53
2019-04-06T05:13:05.406Z,14.20
2019-04-06T05:15:55.006Z,13.57
2019-04-06T05:18:23.650Z,15.40
2019-04-06T05:20:52.203Z,13.60
2019-04-06T05:23:20.956Z,13.20
2019-04-06T05:25:49.438Z,14.37
2019-04-06T05:28:18.029Z,11.70
2019-04-06T05:30:46.567Z,12.43
2019-04-06T05:33:15.406Z,12.63
2019-04-06T05:35:44.101Z,12.50
2019-04-06T05:38:12.656Z,12.27
2019-04-06T05:40:41.198Z,11.50
2019-04-06T05:43:09.754Z,12.63
2019-04-06T05:45:38.352Z,13.47
2019-04-06T05:48:06.875Z,12.30
2019-04-06T05:50:35.467Z,12.97
2019-04-06T05:53:04.190Z,13.40
2019-04-06T05:55:32.790Z,12.63
2019-04-06T05:58:04.400Z,13.80
2019-04-06T06:00:31.619Z,15.30
2019-04-06T06:03:00.430Z,14.70
2019-04-06T06:05:29.011Z,18.07
2019-04-06T06:07:57.603Z,17.50
2019-04-06T06:10:26.216Z,17.07
2019-04-06T06:12:54.799Z,17.37
2019-04-06T06:15:23.423Z,18.80
2019-04-06T06:17:51.995Z,16.97
2019-04-06T06:20:20.538Z,19.27
2019-04-06T06:22:49.127Z,17.60
2019-04-06T06:25:17.748Z,27.30
2019-04-06T06:27:46.331Z,28.10
2019-04-06T06:30:15.106Z,19.40
2019-04-06T06:32:43.783Z,18.17
2019-04-06T06:35:12.696Z,19.90
2019-04-06T06:37:41.241Z,18.80
2019-04-06T06:40:09.985Z,17.80
2019-04-06T06:42:38.846Z,17.03
2019-04-06T06:45:07.671Z,17.60
2019-04-06T06:47:36.400Z,18.53
2019-04-06T06:50:06.775Z,17.33
2019-04-06T06:52:35.316Z,18.17
2019-04-06T06:55:04.636Z,18.67
2019-04-06T06:57:33.174Z,18.87
2019-04-06T07:00:01.760Z,19.40
2019-04-06T07:02:30.307Z,16.53
2019-04-06T07:04:58.899Z,16.57
2019-04-06T07:07:27.553Z,19.90
2019-04-06T07:10:05.086Z,18.50
2019-04-06T07:12:28.088Z,17.80
2019-04-06T07:14:56.673Z,18.03
2019-04-06T07:17:25.209Z,18.27
2019-04-06T07:19:53.792Z,17.93
2019-04-06T07:22:22.335Z,18.60
2019-04-06T07:24:50.991Z,16.40
2019-04-06T07:27:19.647Z,20.40
2019-04-06T07:29:48.192Z,17.17
2019-04-06T07:32:16.988Z,17.30
2019-04-06T07:34:45.498Z,17.27
2019-04-06T07:37:14.091Z,18.20
2019-04-06T07:39:42.647Z,18.30
2019-04-06T07:42:11.239Z,16.80
2019-04-06T07:44:40.019Z,16.30
2019-04-06T07:47:08.578Z,16.83
2019-04-06T07:49:37.114Z,17.30
2019-04-06T07:52:05.927Z,18.80
2019-04-06T07:54:34.434Z,16.33
2019-04-06T07:57:03.102Z,16.47
2019-04-06T07:59:31.704Z,17.53
2019-04-06T08:02:00.253Z,17.53
2019-04-06T08:04:29.241Z,18.00
2019-04-06T08:06:57.881Z,17.40
2019-04-06T08:09:26.570Z,17.43
2019-04-06T08:11:55.122Z,18.10
2019-04-06T08:14:24.027Z,17.90
2019-04-06T08:16:52.570Z,19.33
2019-04-06T08:19:21.270Z,17.73
2019-04-06T08:21:49.914Z,17.87
2019-04-06T08:24:18.502Z,19.23
2019-04-06T08:26:47.094Z,18.13
2019-04-06T08:29:15.652Z,17.33
2019-04-06T08:31:44.239Z,17.57
2019-04-06T08:34:13.877Z,18.23
2019-04-06T08:36:42.735Z,19.10
2019-04-06T08:39:11.315Z,19.17
2019-04-06T08:41:39.906Z,18.17
2019-04-06T08:44:08.486Z,19.47
2019-04-06T08:46:37.246Z,18.93
2019-04-06T08:49:05.868Z,20.13
2019-04-06T08:51:34.483Z,19.40
2019-04-06T08:54:03.208Z,19.57
2019-04-06T08:56:32.050Z,19.97
2019-04-06T08:59:10.735Z,18.47
2019-04-06T09:01:32.231Z,18.90
2019-04-06T09:04:00.732Z,18.73
2019-04-06T09:06:29.654Z,22.13
2019-04-06T09:08:58.259Z,20.53
2019-04-06T09:11:26.811Z,20.50
2019-04-06T09:13:55.542Z,18.83
2019-04-06T09:16:24.124Z,20.50
2019-04-06T09:18:52.667Z,22.20
2019-04-06T09:21:22.616Z,19.73
2019-04-06T09:23:51.851Z,21.70
2019-04-06T09:26:20.436Z,20.17
2019-04-06T09:28:49.114Z,18.80
2019-04-06T09:31:17.678Z,22.77
2019-04-06T09:33:46.584Z,19.50
2019-04-06T09:36:15.175Z,21.03
2019-04-06T09:38:43.718Z,20.67
2019-04-06T09:41:12.859Z,22.27
2019-04-06T09:43:41.751Z,23.13
2019-04-06T09:46:11.980Z,20.53
2019-04-06T09:48:42.446Z,22.43
2019-04-06T09:51:27.966Z,22.10
2019-04-06T09:54:14.236Z,22.40
2019-04-06T09:56:44.475Z,22.60
2019-04-06T09:59:17.389Z,22.00
2019-04-06T10:01:47.599Z,21.80
2019-04-06T10:04:17.802Z,23.10
2019-04-06T10:06:56.535Z,20.83
2019-04-06T10:09:26.708Z,21.43
2019-04-06T10:12:08.648Z,20.63
2019-04-06T10:14:39.366Z,20.97
2019-04-06T10:17:25.940Z,22.40
2019-04-06T10:20:02.117Z,22.67
2019-04-06T10:22:35.147Z,23.00
2019-04-06T10:25:06.439Z,22.13
2019-04-06T10:27:39.635Z,24.27
2019-04-06T10:30:10.718Z,22.70
2019-04-06T10:32:57.047Z,23.80
2019-04-06T10:35:46.454Z,21.60
2019-04-06T10:38:19.182Z,22.63
2019-04-06T10:41:05.878Z,23.03
2019-04-06T10:43:48.206Z,23.20
2019-04-06T10:46:21.395Z,22.50
2019-04-06T10:49:03.411Z,22.60
2019-04-06T10:51:50.147Z,24.70
2019-04-06T10:54:29.370Z,22.70
2019-04-06T10:57:16.039Z,23.07
2019-04-06T11:00:03.336Z,24.20
2019-04-06T11:02:36.455Z,23.30
2019-04-06T11:05:13.887Z,21.83
2019-04-06T11:07:47.131Z,22.57
2019-04-06T11:10:20.377Z,23.93
2019-04-06T11:13:08.514Z,23.93
2019-04-06T11:15:38.714Z,23.03
2019-04-06T11:18:25.215Z,23.70
2019-04-06T11:20:55.433Z,23.10
2019-04-06T11:23:25.632Z,23.37
2019-04-06T11:25:58.498Z,23.13
2019-04-06T11:28:28.716Z,21.83
2019-04-06T11:31:08.798Z,17.87
2019-04-06T11:33:45.221Z,20.30
2019-04-06T11:36:34.147Z,19.07
2019-04-06T11:39:21.129Z,18.40
2019-04-06T11:42:03.405Z,20.63
2019-04-06T11:44:36.447Z,19.43
2019-04-06T11:47:19.338Z,19.33
2019-04-06T11:49:55.546Z,16.73
2019-04-06T11:52:40.646Z,17.90
2019-04-06T11:55:10.908Z,17.90
2019-04-06T11:57:41.125Z,17.60
2019-04-06T12:00:28.183Z,19.47
2019-04-06T12:03:14.878Z,18.60
2019-04-06T12:05:45.135Z,16.50
2019-04-06T12:08:15.352Z,18.57
2019-04-06T12:11:00.794Z,16.97
2019-04-06T12:13:34.254Z,17.57
2019-04-06T12:16:04.691Z,17.37
2019-04-06T12:18:37.663Z,18.10
2019-04-06T12:21:24.486Z,17.20
2019-04-06T12:24:11.379Z,18.53
2019-04-06T12:26:44.503Z,18.17
2019-04-06T12:29:20.828Z,16.87
2019-04-06T12:31:57.014Z,17.53
2019-04-06T12:34:30.021Z,14.90
2019-04-06T12:37:00.466Z,14.80
2019-04-06T12:39:30.683Z,13.87
2019-04-06T12:42:00.873Z,14.10
2019-04-06T12:44:48.978Z,14.90
2019-04-06T12:47:36.033Z,15.13
2019-04-06T12:50:11.308Z,13.80
2019-04-06T12:52:59.707Z,16.13
2019-04-06T12:55:38.441Z,13.50
2019-04-06T12:58:11.607Z,14.50
2019-04-06T13:00:51.108Z,13.50
2019-04-06T13:03:16.738Z,14.20
2019-04-06T13:05:47.157Z,12.50
2019-04-06T13:08:26.422Z,14.80
2019-04-06T13:11:08.872Z,14.80
2019-04-06T13:13:48.310Z,13.77
2019-04-06T13:16:26.081Z,10.77
2019-04-06T13:19:12.433Z,10.70
2019-04-06T13:21:59.067Z,11.30
2019-04-06T13:24:29.250Z,9.37
2019-04-06T13:27:15.422Z,9.87
2019-04-06T13:29:48.590Z,10.10
2019-04-06T13:32:21.494Z,8.67
2019-04-06T13:35:09.721Z,9.40
2019-04-06T13:37:42.403Z,8.30
2019-04-06T13:40:12.727Z,9.07
2019-04-06T13:42:51.891Z,9.43
2019-04-06T13:45:24.796Z,9.00
2019-04-06T13:48:03.982Z,9.60
2019-04-06T13:50:43.355Z,8.73
2019-04-06T13:53:20.157Z,10.00
2019-04-06T13:55:53.002Z,8.20
2019-04-06T13:58:39.303Z,8.70
2019-04-06T14:01:15.957Z,9.30
2019-04-06T14:03:50.188Z,9.47
2019-04-06T14:06:22.998Z,8.67
2019-04-06T14:08:53.365Z,10.03
2019-04-06T14:11:32.930Z,9.07
2019-04-06T14:14:19.907Z,9.93
2019-04-06T14:17:06.552Z,9.40
2019-04-06T14:19:36.695Z,8.30
2019-04-06T14:22:19.873Z,8.50
2019-04-06T14:24:53.327Z,8.77
2019-04-06T14:27:26.555Z,8.27
2019-04-06T14:30:05.807Z,8.70
2019-04-06T14:32:36.018Z,9.27
2019-04-06T14:35:08.546Z,9.03
2019-04-06T14:37:55.279Z,9.57
2019-04-06T14:40:31.598Z,8.70
2019-04-06T14:43:18.247Z,7.57
2019-04-06T14:45:54.492Z,9.20
2019-04-06T14:48:41.580Z,15.00
2019-04-06T14:51:14.689Z,7.90
2019-04-06T14:53:48.085Z,7.97
2019-04-06T14:56:18.193Z,8.70
2019-04-06T14:58:54.716Z,8.37
2019-04-06T15:01:43.659Z,7.67
2019-04-06T15:04:21.499Z,9.60
2019-04-06T15:07:11.137Z,8.70
2019-04-06T15:09:42.061Z,8.20
2019-04-06T15:12:14.845Z,8.80
2019-04-06T15:14:45.103Z,11.70
2019-04-06T15:17:23.930Z,11.27
2019-04-06T15:20:00.743Z,9.70
2019-04-06T15:22:46.281Z,9.70
2019-04-06T15:25:18.844Z,10.50
2019-04-06T15:27:49.022Z,8.80
2019-04-06T15:30:19.479Z,9.60
2019-04-06T15:32:58.844Z,9.47
2019-04-06T15:35:32.019Z,10.50
2019-04-06T15:38:18.406Z,10.00
2019-04-06T15:40:48.627Z,10.10
2019-04-06T15:43:37.568Z,11.03
2019-04-06T15:46:07.859Z,13.07
2019-04-06T15:48:53.388Z,13.10
2019-04-06T15:51:32.796Z,14.93
2019-04-06T15:54:03.326Z,13.07
2019-04-06T15:56:50.035Z,14.33
2019-04-06T15:59:35.335Z,14.80
2019-04-06T16:02:05.756Z,13.07
2019-04-06T16:04:42.127Z,18.90
2019-04-06T16:07:12.760Z,38.67
2019-04-06T16:09:57.716Z,13.77
2019-04-06T16:12:44.426Z,11.50
2019-04-06T16:15:23.879Z,13.60
2019-04-06T16:18:10.878Z,14.23
2019-04-06T16:20:44.185Z,13.93
2019-04-06T16:23:23.278Z,13.57
2019-04-06T16:26:02.720Z,13.63
2019-04-06T16:28:42.014Z,13.10
2019-04-06T16:31:12.513Z,12.57
2019-04-06T16:33:59.099Z,12.73
2019-04-06T16:36:41.615Z,13.00
2019-04-06T16:39:20.880Z,12.97
2019-04-06T16:42:07.838Z,14.50
2019-04-06T16:44:41.026Z,14.40
2019-04-06T16:47:17.067Z,15.13
2019-04-06T16:50:02.668Z,13.80
2019-04-06T16:52:50.959Z,14.30
2019-04-06T16:55:30.175Z,12.73
2019-04-06T16:58:06.439Z,14.80
2019-04-06T17:00:48.783Z,14.00
2019-04-06T17:03:24.683Z,13.97
2019-04-06T17:06:04.235Z,13.53
2019-04-06T17:08:50.919Z,14.07
2019-04-06T17:11:24.496Z,15.10
2019-04-06T17:14:03.471Z,14.40
2019-04-06T17:16:49.939Z,14.30
2019-04-06T17:19:38.183Z,14.37
2019-04-06T17:22:23.549Z,14.57
2019-04-06T17:24:56.901Z,14.50
2019-04-06T17:27:30.212Z,14.03
2019-04-06T17:30:12.300Z,13.67
2019-04-06T17:32:45.295Z,13.90
2019-04-06T17:35:27.552Z,14.80
2019-04-06T17:37:57.738Z,13.87
2019-04-06T17:40:27.948Z,15.57
2019-04-06T17:42:58.202Z,14.10
2019-04-06T17:45:37.373Z,15.87
2019-04-06T17:48:07.595Z,14.10
2019-04-06T17:50:37.785Z,16.50
2019-04-06T17:56:10.567Z,14.43
2019-04-06T17:58:57.489Z,14.00
2019-04-06T18:01:44.304Z,12.80
2019-04-06T18:04:31.200Z,14.20
2019-04-06T18:07:01.439Z,13.40
2019-04-06T18:09:31.718Z,14.10
2019-04-06T18:12:18.526Z,15.30
2019-04-06T18:14:47.202Z,22.47
2019-04-06T18:17:15.712Z,16.87
2019-04-06T18:19:44.764Z,15.30
2019-04-06T18:22:13.535Z,13.87
2019-04-06T18:24:43.413Z,13.67
2019-04-06T18:27:11.959Z,13.53
2019-04-06T18:29:41.022Z,13.00
2019-04-06T18:32:17.476Z,12.60
2019-04-06T18:34:46.133Z,13.20
2019-04-06T18:37:22.381Z,13.87
2019-04-06T18:39:52.617Z,11.63
2019-04-06T18:42:21.144Z,13.27
2019-04-06T18:44:49.873Z,12.70
2019-04-06T18:47:18.671Z,12.50
2019-04-06T18:49:47.246Z,12.17
2019-04-06T18:52:15.790Z,12.87
2019-04-06T18:54:44.369Z,13.10
2019-04-06T18:57:12.843Z,15.00
2019-04-06T18:59:41.777Z,14.43
2019-04-06T19:02:10.314Z,13.40
2019-04-06T19:04:38.858Z,14.63
2019-04-06T19:07:07.621Z,15.27
2019-04-06T19:09:36.158Z,14.70
2019-04-06T19:12:05.342Z,14.20
2019-04-06T19:14:33.837Z,15.67
2019-04-06T19:17:02.900Z,14.93
2019-04-06T19:19:31.443Z,15.37
2019-04-06T19:22:01.349Z,15.40
2019-04-06T19:24:30.294Z,14.47
2019-04-06T19:26:59.006Z,15.67
2019-04-06T19:29:27.555Z,16.60
2019-04-06T19:31:57.534Z,16.10
2019-04-06T19:34:26.316Z,17.80
2019-04-06T19:36:55.447Z,17.27
2019-04-06T19:39:24.194Z,16.83
2019-04-06T19:41:52.803Z,15.50
2019-04-06T19:44:21.663Z,17.63
2019-04-06T19:46:50.434Z,16.67
2019-04-06T19:49:19.558Z,18.50
2019-04-06T19:51:48.254Z,17.90
2019-04-06T19:54:16.798Z,17.20
2019-04-06T19:56:45.367Z,16.87
2019-04-06T19:59:13.922Z,16.10
2019-04-06T20:01:42.554Z,15.97
2019-04-06T20:04:11.360Z,16.33
2019-04-06T20:06:39.975Z,17.37
2019-04-06T20:09:08.657Z,17.20
2019-04-06T20:11:37.486Z,16.37
2019-04-06T20:14:06.243Z,17.23
2019-04-06T20:16:35.218Z,17.90
2019-04-06T20:19:04.424Z,17.10
2019-04-06T20:21:33.446Z,17.43
2019-04-06T20:24:01.928Z,16.50
2019-04-06T20:26:32.248Z,15.87
2019-04-06T20:29:00.690Z,16.03
2019-04-06T20:31:29.262Z,16.93
2019-04-06T20:33:57.802Z,16.43
2019-04-06T20:36:26.290Z,18.67
2019-04-06T20:38:54.926Z,15.63
2019-04-06T20:41:23.485Z,17.50
2019-04-06T20:43:52.118Z,18.37
2019-04-06T20:46:20.690Z,17.43
2019-04-06T20:48:49.259Z,18.20
2019-04-06T20:51:17.994Z,18.53
2019-04-06T20:53:47.035Z,18.10
2019-04-06T20:56:16.003Z,20.10
2019-04-06T20:58:44.661Z,20.07
2019-04-06T21:01:13.135Z,19.37
2019-04-06T21:03:41.702Z,19.20
2019-04-06T21:06:10.174Z,18.97
2019-04-06T21:08:39.057Z,21.43
2019-04-06T21:11:08.266Z,22.37
2019-04-06T21:13:36.942Z,24.37
2019-04-06T21:16:05.763Z,23.10
2019-04-06T21:18:34.430Z,27.50
2019-04-06T21:21:03.021Z,26.00
2019-04-06T21:23:32.813Z,25.10
2019-04-06T21:26:01.781Z,21.23
2019-04-06T21:28:30.968Z,20.93
2019-04-06T21:30:59.716Z,20.73
2019-04-06T21:33:28.616Z,28.97
2019-04-06T21:35:57.534Z,26.43
2019-04-06T21:38:26.199Z,29.87
2019-04-06T21:40:55.282Z,22.90
2019-04-06T21:43:23.862Z,32.17
2019-04-06T21:45:52.390Z,37.00
2019-04-06T21:48:21.302Z,27.60
2019-04-06T21:50:50.134Z,20.70
2019-04-06T21:53:18.683Z,18.20
2019-04-06T21:55:47.222Z,17.33
2019-04-06T21:58:15.791Z,16.23
2019-04-06T22:00:49.845Z,17.87
2019-04-06T22:03:19.039Z,16.97
2019-04-06T22:05:47.929Z,15.83
2019-04-06T22:08:16.544Z,17.50
2019-04-06T22:10:45.807Z,17.00
2019-04-06T22:13:14.834Z,17.77
2019-04-06T22:15:43.514Z,16.27
2019-04-06T22:18:12.567Z,15.83
2019-04-06T22:20:41.237Z,16.77
2019-04-06T22:23:09.774Z,16.57
2019-04-06T22:25:38.311Z,17.37
2019-04-06T22:28:06.819Z,16.20
2019-04-06T22:30:35.310Z,17.63
2019-04-06T22:33:03.922Z,17.10
2019-04-06T22:35:32.498Z,16.73
2019-04-06T22:38:01.383Z,17.07
2019-04-06T22:40:30.131Z,16.73
2019-04-06T22:42:58.683Z,17.20
2019-04-06T22:45:28.898Z,17.70
2019-04-06T22:47:57.548Z,17.60
2019-04-06T22:50:26.871Z,17.27
2019-04-06T22:52:56.052Z,16.87
2019-04-06T22:55:24.749Z,19.10
2019-04-06T22:57:53.334Z,17.07
2019-04-06T23:00:32.511Z,16.33
2019-04-06T23:03:09.145Z,18.93
2019-04-06T23:05:42.594Z,19.57
2019-04-06T23:08:11.133Z,18.00
2019-04-06T23:10:39.719Z,17.17
2019-04-06T23:13:08.237Z,17.17
2019-04-06T23:15:37.162Z,18.03
2019-04-06T23:18:05.877Z,16.80
2019-04-06T23:20:34.619Z,17.90
2019-04-06T23:23:03.801Z,18.20
2019-04-06T23:25:32.389Z,18.70
2019-04-06T23:28:01.006Z,18.23
2019-04-06T23:30:29.545Z,19.80
2019-04-06T23:32:58.247Z,17.83
2019-04-06T23:35:26.863Z,18.13
2019-04-06T23:37:55.433Z,19.47
2019-04-06T23:40:24.278Z,19.10
2019-04-06T23:42:53.716Z,19.07
2019-04-06T23:45:23.023Z,18.93
2019-04-06T23:47:52.074Z,19.37
2019-04-06T23:50:20.611Z,19.00
2019-04-06T23:52:49.097Z,18.73
2019-04-06T23:55:17.639Z,19.13
2019-04-06T23:57:46.567Z,18.80
